sensor_id;sensor_type;location;lat;lon;timestamp;P1;durP1;ratioP1;P2;durP2;ratioP2
62256;SDS011;48240;52.962;5.790;2022-08-19T04:08:54;2.80;;;1.77;;
62256;SDS011;48240;52.962;5.790;2022-08-19T04:11:22;2.72;;;2.53;;
62256;SDS011;48240;52.962;5.790;2022-08-19T04:13:49;2.33;;;1.80;;
62256;SDS011;48240;52.962;5.790;2022-08-19T04:16:16;1.88;;;1.70;;
62256;SDS011;48240;52.962;5.790;2022-08-19T04:18:42;3.88;;;1.90;;
62256;SDS011;48240;52.962;5.790;2022-08-19T04:21:14;2.42;;;2.20;;
62256;SDS011;48240;52.962;5.790;2022-08-19T04:23:40;1.98;;;1.80;;
62256;SDS011;48240;52.962;5.790;2022-08-19T04:26:07;1.98;;;1.80;;
62256;SDS011;48240;52.962;5.790;2022-08-19T04:28:37;2.67;;;2.38;;
62256;SDS011;48240;52.962;5.790;2022-08-19T04:31:04;2.80;;;2.00;;
62256;SDS011;48240;52.962;5.790;2022-08-19T04:33:30;2.40;;;1.90;;
62256;SDS011;48240;52.962;5.790;2022-08-19T04:35:56;2.00;;;1.70;;
62256;SDS011;48240;52.962;5.790;2022-08-19T04:38:23;2.17;;;1.80;;
62256;SDS011;48240;52.962;5.790;2022-08-19T04:40:50;2.28;;;1.80;;
62256;SDS011;48240;52.962;5.790;2022-08-19T04:43:37;2.25;;;1.90;;
62256;SDS011;48240;52.962;5.790;2022-08-19T04:46:07;1.73;;;1.60;;
62256;SDS011;48240;52.962;5.790;2022-08-19T04:48:34;2.60;;;1.75;;
62256;SDS011;48240;52.962;5.790;2022-08-19T04:51:00;2.13;;;1.80;;
62256;SDS011;48240;52.962;5.790;2022-08-19T04:53:31;2.20;;;2.00;;
62256;SDS011;48240;52.962;5.790;2022-08-19T04:55:58;3.13;;;1.92;;
62256;SDS011;48240;52.962;5.790;2022-08-19T04:58:25;2.35;;;2.00;;
62256;SDS011;48240;52.962;5.790;2022-08-19T05:00:52;1.95;;;1.85;;
62256;SDS011;48240;52.962;5.790;2022-08-19T05:03:18;1.90;;;1.80;;
62256;SDS011;48240;52.962;5.790;2022-08-19T05:05:44;2.47;;;2.25;;
62256;SDS011;48240;52.962;5.790;2022-08-19T05:08:14;2.35;;;2.10;;
62256;SDS011;48240;52.962;5.790;2022-08-19T05:10:45;2.30;;;2.10;;
62256;SDS011;48240;52.962;5.790;2022-08-19T05:13:12;2.33;;;2.10;;
62256;SDS011;48240;52.962;5.790;2022-08-19T05:15:38;2.42;;;1.88;;
62256;SDS011;48240;52.962;5.790;2022-08-19T05:18:04;1.98;;;1.80;;
62256;SDS011;48240;52.962;5.790;2022-08-19T05:20:49;2.55;;;1.88;;
62256;SDS011;48240;52.962;5.790;2022-08-19T05:23:33;2.55;;;2.15;;
62256;SDS011;48240;52.962;5.790;2022-08-19T05:25:59;2.75;;;1.70;;
62256;SDS011;48240;52.962;5.790;2022-08-19T05:28:25;2.55;;;2.00;;
62256;SDS011;48240;52.962;5.790;2022-08-19T05:30:52;8.55;;;2.20;;
62256;SDS011;48240;52.962;5.790;2022-08-19T05:33:20;2.75;;;2.05;;
62256;SDS011;48240;52.962;5.790;2022-08-19T05:35:47;3.03;;;2.70;;
62256;SDS011;48240;52.962;5.790;2022-08-19T05:38:14;2.30;;;2.10;;
62256;SDS011;48240;52.962;5.790;2022-08-19T05:40:40;4.63;;;3.00;;
62256;SDS011;48240;52.962;5.790;2022-08-19T05:43:06;3.05;;;1.90;;
62256;SDS011;48240;52.962;5.790;2022-08-19T05:45:37;3.22;;;2.00;;
62256;SDS011;48240;52.962;5.790;2022-08-19T05:48:03;2.40;;;1.80;;
62256;SDS011;48240;52.962;5.790;2022-08-19T05:50:29;2.92;;;2.35;;
62256;SDS011;48240;52.962;5.790;2022-08-19T05:52:56;3.65;;;2.97;;
62256;SDS011;48240;52.962;5.790;2022-08-19T05:55:22;2.78;;;2.53;;
62256;SDS011;48240;52.962;5.790;2022-08-19T05:57:48;3.88;;;2.60;;
62256;SDS011;48240;52.962;5.790;2022-08-19T06:00:15;5.40;;;2.80;;
62256;SDS011;48240;52.962;5.790;2022-08-19T06:02:41;3.08;;;2.63;;
62256;SDS011;48240;52.962;5.790;2022-08-19T06:05:07;3.90;;;3.10;;
62256;SDS011;48240;52.962;5.790;2022-08-19T06:07:37;5.15;;;3.55;;
62256;SDS011;48240;52.962;5.790;2022-08-19T06:10:05;5.33;;;3.23;;
62256;SDS011;48240;52.962;5.790;2022-08-19T06:12:32;5.20;;;3.95;;
62256;SDS011;48240;52.962;5.790;2022-08-19T06:15:03;4.80;;;4.00;;
62256;SDS011;48240;52.962;5.790;2022-08-19T06:17:30;4.93;;;4.07;;
62256;SDS011;48240;52.962;5.790;2022-08-19T06:19:56;7.05;;;4.53;;
62256;SDS011;48240;52.962;5.790;2022-08-19T06:22:23;5.90;;;4.35;;
62256;SDS011;48240;52.962;5.790;2022-08-19T06:24:49;5.30;;;4.68;;
62256;SDS011;48240;52.962;5.790;2022-08-19T06:27:17;5.22;;;4.47;;
62256;SDS011;48240;52.962;5.790;2022-08-19T06:29:44;6.00;;;4.35;;
62256;SDS011;48240;52.962;5.790;2022-08-19T06:32:12;5.38;;;4.80;;
62256;SDS011;48240;52.962;5.790;2022-08-19T06:34:40;5.82;;;4.13;;
62256;SDS011;48240;52.962;5.790;2022-08-19T06:37:07;6.18;;;4.25;;
62256;SDS011;48240;52.962;5.790;2022-08-19T06:39:34;4.97;;;4.38;;
62256;SDS011;48240;52.962;5.790;2022-08-19T06:42:01;6.57;;;4.68;;
62256;SDS011;48240;52.962;5.790;2022-08-19T06:44:32;6.32;;;4.63;;
62256;SDS011;48240;52.962;5.790;2022-08-19T06:47:01;8.40;;;4.80;;
62256;SDS011;48240;52.962;5.790;2022-08-19T06:49:27;5.53;;;4.47;;
62256;SDS011;48240;52.962;5.790;2022-08-19T06:51:56;8.25;;;4.50;;
62256;SDS011;48240;52.962;5.790;2022-08-19T06:54:22;7.05;;;4.63;;
62256;SDS011;48240;52.962;5.790;2022-08-19T06:56:49;7.88;;;4.50;;
62256;SDS011;48240;52.962;5.790;2022-08-19T06:59:20;5.63;;;4.40;;
62256;SDS011;48240;52.962;5.790;2022-08-19T07:01:47;5.43;;;4.70;;
62256;SDS011;48240;52.962;5.790;2022-08-19T07:04:15;7.00;;;5.20;;
62256;SDS011;48240;52.962;5.790;2022-08-19T07:06:42;8.15;;;4.95;;
62256;SDS011;48240;52.962;5.790;2022-08-19T07:09:08;6.20;;;5.07;;
62256;SDS011;48240;52.962;5.790;2022-08-19T07:11:35;8.63;;;5.43;;
62256;SDS011;48240;52.962;5.790;2022-08-19T07:14:01;6.72;;;5.93;;
62256;SDS011;48240;52.962;5.790;2022-08-19T07:16:27;9.32;;;5.80;;
62256;SDS011;48240;52.962;5.790;2022-08-19T07:18:53;7.80;;;6.07;;
62256;SDS011;48240;52.962;5.790;2022-08-19T07:21:25;6.90;;;5.80;;
62256;SDS011;48240;52.962;5.790;2022-08-19T07:23:55;7.03;;;5.88;;
62256;SDS011;48240;52.962;5.790;2022-08-19T07:26:28;6.32;;;5.72;;
62256;SDS011;48240;52.962;5.790;2022-08-19T07:28:55;8.27;;;6.45;;
62256;SDS011;48240;52.962;5.790;2022-08-19T07:31:23;8.73;;;6.68;;
62256;SDS011;48240;52.962;5.790;2022-08-19T07:33:50;8.07;;;6.15;;
62256;SDS011;48240;52.962;5.790;2022-08-19T07:36:18;9.68;;;6.32;;
62256;SDS011;48240;52.962;5.790;2022-08-19T07:38:46;7.75;;;6.85;;
62256;SDS011;48240;52.962;5.790;2022-08-19T07:41:14;8.80;;;6.90;;
62256;SDS011;48240;52.962;5.790;2022-08-19T07:43:40;8.52;;;7.13;;
62256;SDS011;48240;52.962;5.790;2022-08-19T07:46:08;8.07;;;6.90;;
62256;SDS011;48240;52.962;5.790;2022-08-19T07:48:34;8.48;;;6.95;;
62256;SDS011;48240;52.962;5.790;2022-08-19T07:51:01;9.45;;;7.15;;
62256;SDS011;48240;52.962;5.790;2022-08-19T07:53:28;10.75;;;7.57;;
62256;SDS011;48240;52.962;5.790;2022-08-19T07:55:55;9.80;;;7.90;;
62256;SDS011;48240;52.962;5.790;2022-08-19T07:58:25;9.60;;;6.68;;
62256;SDS011;48240;52.962;5.790;2022-08-19T08:00:52;8.75;;;6.97;;
62256;SDS011;48240;52.962;5.790;2022-08-19T08:03:19;10.10;;;7.95;;
62256;SDS011;48240;52.962;5.790;2022-08-19T08:05:45;14.15;;;10.13;;
62256;SDS011;48240;52.962;5.790;2022-08-19T08:08:31;15.55;;;10.25;;
62256;SDS011;48240;52.962;5.790;2022-08-19T08:11:17;11.77;;;9.38;;
62256;SDS011;48240;52.962;5.790;2022-08-19T08:13:44;13.23;;;9.27;;
62256;SDS011;48240;52.962;5.790;2022-08-19T08:16:10;11.55;;;8.93;;
62256;SDS011;48240;52.962;5.790;2022-08-19T08:18:36;15.70;;;9.93;;
62256;SDS011;48240;52.962;5.790;2022-08-19T08:21:06;15.73;;;10.73;;
62256;SDS011;48240;52.962;5.790;2022-08-19T08:23:33;13.57;;;9.77;;
62256;SDS011;48240;52.962;5.790;2022-08-19T08:25:59;17.23;;;10.52;;
62256;SDS011;48240;52.962;5.790;2022-08-19T08:28:27;13.85;;;10.20;;
62256;SDS011;48240;52.962;5.790;2022-08-19T08:30:53;10.73;;;8.90;;
62256;SDS011;48240;52.962;5.790;2022-08-19T08:33:21;12.02;;;9.00;;
62256;SDS011;48240;52.962;5.790;2022-08-19T08:35:47;14.57;;;9.02;;
62256;SDS011;48240;52.962;5.790;2022-08-19T08:38:14;10.38;;;8.07;;
62256;SDS011;48240;52.962;5.790;2022-08-19T08:43:23;12.82;;;8.30;;
62256;SDS011;48240;52.962;5.790;2022-08-19T08:46:02;11.52;;;8.32;;
62256;SDS011;48240;52.962;5.790;2022-08-19T08:48:46;12.65;;;8.43;;
62256;SDS011;48240;52.962;5.790;2022-08-19T08:51:16;15.30;;;8.45;;
62256;SDS011;48240;52.962;5.790;2022-08-19T08:53:44;11.00;;;7.80;;
62256;SDS011;48240;52.962;5.790;2022-08-19T08:56:12;12.55;;;8.70;;
62256;SDS011;48240;52.962;5.790;2022-08-19T08:58:42;9.93;;;7.93;;
62256;SDS011;48240;52.962;5.790;2022-08-19T09:01:10;11.90;;;8.38;;
62256;SDS011;48240;52.962;5.790;2022-08-19T09:03:37;11.98;;;7.95;;
62256;SDS011;48240;52.962;5.790;2022-08-19T09:09:09;11.70;;;8.40;;
62256;SDS011;48240;52.962;5.790;2022-08-19T09:16:40;11.60;;;8.45;;
62256;SDS011;48240;52.962;5.790;2022-08-19T09:19:07;12.23;;;8.05;;
62256;SDS011;48240;52.962;5.790;2022-08-19T09:21:33;12.65;;;8.30;;
62256;SDS011;48240;52.962;5.790;2022-08-19T09:24:00;14.40;;;8.57;;
62256;SDS011;48240;52.962;5.790;2022-08-19T09:26:27;11.43;;;8.57;;
62256;SDS011;48240;52.962;5.790;2022-08-19T09:28:53;13.13;;;8.25;;
62256;SDS011;48240;52.962;5.790;2022-08-19T09:31:22;12.80;;;8.35;;
62256;SDS011;48240;52.962;5.790;2022-08-19T09:33:48;12.07;;;7.85;;
62256;SDS011;48240;52.962;5.790;2022-08-19T09:36:15;12.48;;;7.90;;
62256;SDS011;48240;52.962;5.790;2022-08-19T09:38:41;13.93;;;7.95;;
62256;SDS011;48240;52.962;5.790;2022-08-19T09:41:09;10.50;;;7.78;;
62256;SDS011;48240;52.962;5.790;2022-08-19T09:43:37;14.40;;;8.13;;
62256;SDS011;48240;52.962;5.790;2022-08-19T09:46:04;12.50;;;7.88;;
62256;SDS011;48240;52.962;5.790;2022-08-19T09:48:33;13.13;;;8.20;;
62256;SDS011;48240;52.962;5.790;2022-08-19T09:51:03;16.55;;;8.55;;
62256;SDS011;48240;52.962;5.790;2022-08-19T09:53:29;12.60;;;8.48;;
62256;SDS011;48240;52.962;5.790;2022-08-19T09:55:56;11.95;;;7.80;;
62256;SDS011;48240;52.962;5.790;2022-08-19T09:58:22;14.38;;;8.80;;
62256;SDS011;48240;52.962;5.790;2022-08-19T10:00:53;14.73;;;8.38;;
62256;SDS011;48240;52.962;5.790;2022-08-19T10:03:19;13.18;;;7.95;;
62256;SDS011;48240;52.962;5.790;2022-08-19T10:05:45;12.48;;;7.93;;
62256;SDS011;48240;52.962;5.790;2022-08-19T10:08:15;13.50;;;8.02;;
62256;SDS011;48240;52.962;5.790;2022-08-19T10:10:42;12.95;;;8.05;;
62256;SDS011;48240;52.962;5.790;2022-08-19T10:13:09;11.45;;;7.20;;
62256;SDS011;48240;52.962;5.790;2022-08-19T10:15:35;10.80;;;8.10;;
62256;SDS011;48240;52.962;5.790;2022-08-19T10:18:04;12.45;;;7.80;;
62256;SDS011;48240;52.962;5.790;2022-08-19T10:20:30;10.80;;;7.50;;
62256;SDS011;48240;52.962;5.790;2022-08-19T10:22:57;10.63;;;7.55;;
62256;SDS011;48240;52.962;5.790;2022-08-19T10:25:24;11.95;;;7.90;;
62256;SDS011;48240;52.962;5.790;2022-08-19T10:27:52;13.98;;;8.10;;
62256;SDS011;48240;52.962;5.790;2022-08-19T10:30:18;12.23;;;8.48;;
62256;SDS011;48240;52.962;5.790;2022-08-19T10:32:44;10.77;;;7.65;;
62256;SDS011;48240;52.962;5.790;2022-08-19T10:35:11;12.52;;;8.07;;
62256;SDS011;48240;52.962;5.790;2022-08-19T10:37:37;10.38;;;7.70;;
62256;SDS011;48240;52.962;5.790;2022-08-19T10:40:07;11.80;;;7.97;;
62256;SDS011;48240;52.962;5.790;2022-08-19T10:42:35;12.35;;;8.60;;
62256;SDS011;48240;52.962;5.790;2022-08-19T10:45:02;12.10;;;8.63;;
62256;SDS011;48240;52.962;5.790;2022-08-19T10:47:29;13.15;;;8.95;;
62256;SDS011;48240;52.962;5.790;2022-08-19T10:49:55;12.80;;;8.85;;
62256;SDS011;48240;52.962;5.790;2022-08-19T10:52:40;16.92;;;9.63;;
62256;SDS011;48240;52.962;5.790;2022-08-19T10:55:07;12.95;;;9.65;;
62256;SDS011;48240;52.962;5.790;2022-08-19T10:57:52;16.52;;;10.30;;
62256;SDS011;48240;52.962;5.790;2022-08-19T11:00:19;13.40;;;9.60;;
62256;SDS011;48240;52.962;5.790;2022-08-19T11:02:46;14.20;;;10.05;;
62256;SDS011;48240;52.962;5.790;2022-08-19T11:05:12;14.93;;;10.30;;
62256;SDS011;48240;52.962;5.790;2022-08-19T11:07:40;17.00;;;9.95;;
62256;SDS011;48240;52.962;5.790;2022-08-19T11:10:06;12.70;;;9.35;;
62256;SDS011;48240;52.962;5.790;2022-08-19T11:12:33;17.13;;;9.98;;
62256;SDS011;48240;52.962;5.790;2022-08-19T11:14:59;15.13;;;9.90;;
62256;SDS011;48240;52.962;5.790;2022-08-19T11:17:25;15.85;;;9.68;;
62256;SDS011;48240;52.962;5.790;2022-08-19T11:19:51;12.88;;;9.68;;
62256;SDS011;48240;52.962;5.790;2022-08-19T11:22:17;15.50;;;10.13;;
62256;SDS011;48240;52.962;5.790;2022-08-19T11:24:44;14.50;;;9.32;;
62256;SDS011;48240;52.962;5.790;2022-08-19T11:27:11;15.57;;;9.65;;
62256;SDS011;48240;52.962;5.790;2022-08-19T11:29:37;15.10;;;9.93;;
62256;SDS011;48240;52.962;5.790;2022-08-19T11:32:05;15.20;;;9.90;;
62256;SDS011;48240;52.962;5.790;2022-08-19T11:34:31;15.35;;;9.95;;
62256;SDS011;48240;52.962;5.790;2022-08-19T11:36:57;18.42;;;10.70;;
62256;SDS011;48240;52.962;5.790;2022-08-19T11:39:25;15.55;;;10.23;;
62256;SDS011;48240;52.962;5.790;2022-08-19T11:41:51;21.98;;;10.77;;
62256;SDS011;48240;52.962;5.790;2022-08-19T11:44:17;15.75;;;10.85;;
62256;SDS011;48240;52.962;5.790;2022-08-19T11:46:44;14.95;;;11.30;;
62256;SDS011;48240;52.962;5.790;2022-08-19T11:49:11;16.17;;;10.95;;
62256;SDS011;48240;52.962;5.790;2022-08-19T11:51:37;20.58;;;10.88;;
62256;SDS011;48240;52.962;5.790;2022-08-19T11:54:04;18.80;;;10.95;;
62256;SDS011;48240;52.962;5.790;2022-08-19T11:56:31;15.23;;;11.02;;
62256;SDS011;48240;52.962;5.790;2022-08-19T11:58:57;18.02;;;10.48;;
62256;SDS011;48240;52.962;5.790;2022-08-19T12:01:24;17.88;;;11.90;;
62256;SDS011;48240;52.962;5.790;2022-08-19T12:03:51;18.08;;;11.13;;
62256;SDS011;48240;52.962;5.790;2022-08-19T12:06:23;18.60;;;11.38;;
62256;SDS011;48240;52.962;5.790;2022-08-19T12:08:54;15.95;;;10.52;;
62256;SDS011;48240;52.962;5.790;2022-08-19T12:11:20;15.50;;;10.57;;
62256;SDS011;48240;52.962;5.790;2022-08-19T12:13:47;18.10;;;10.00;;
62256;SDS011;48240;52.962;5.790;2022-08-19T12:16:14;16.00;;;10.23;;
62256;SDS011;48240;52.962;5.790;2022-08-19T12:18:41;14.63;;;10.48;;
62256;SDS011;48240;52.962;5.790;2022-08-19T12:21:21;18.03;;;10.03;;
62256;SDS011;48240;52.962;5.790;2022-08-19T12:23:51;16.85;;;10.30;;
62256;SDS011;48240;52.962;5.790;2022-08-19T12:26:18;15.10;;;10.32;;
62256;SDS011;48240;52.962;5.790;2022-08-19T12:28:44;16.83;;;11.05;;
62256;SDS011;48240;52.962;5.790;2022-08-19T12:31:13;18.33;;;11.80;;
62256;SDS011;48240;52.962;5.790;2022-08-19T12:33:40;16.02;;;9.95;;
62256;SDS011;48240;52.962;5.790;2022-08-19T12:36:07;17.67;;;10.55;;
62256;SDS011;48240;52.962;5.790;2022-08-19T12:38:34;18.10;;;10.38;;
62256;SDS011;48240;52.962;5.790;2022-08-19T12:41:01;15.98;;;11.80;;
62256;SDS011;48240;52.962;5.790;2022-08-19T12:43:30;21.70;;;11.32;;
62256;SDS011;48240;52.962;5.790;2022-08-19T12:45:56;15.32;;;10.63;;
62256;SDS011;48240;52.962;5.790;2022-08-19T12:48:22;17.15;;;10.30;;
62256;SDS011;48240;52.962;5.790;2022-08-19T12:50:48;18.08;;;10.40;;
62256;SDS011;48240;52.962;5.790;2022-08-19T12:53:15;14.48;;;10.27;;
62256;SDS011;48240;52.962;5.790;2022-08-19T12:55:41;14.20;;;9.63;;
62256;SDS011;48240;52.962;5.790;2022-08-19T12:58:10;18.75;;;8.70;;
62256;SDS011;48240;52.962;5.790;2022-08-19T13:00:37;10.88;;;8.10;;
62256;SDS011;48240;52.962;5.790;2022-08-19T13:03:03;13.02;;;7.45;;
62256;SDS011;48240;52.962;5.790;2022-08-19T13:05:30;12.02;;;6.60;;
62256;SDS011;48240;52.962;5.790;2022-08-19T13:07:58;9.25;;;5.90;;
62256;SDS011;48240;52.962;5.790;2022-08-19T13:10:26;9.65;;;5.10;;
62256;SDS011;48240;52.962;5.790;2022-08-19T13:12:53;9.25;;;4.85;;
62256;SDS011;48240;52.962;5.790;2022-08-19T13:15:20;11.70;;;4.97;;
62256;SDS011;48240;52.962;5.790;2022-08-19T13:17:47;8.75;;;4.50;;
62256;SDS011;48240;52.962;5.790;2022-08-19T13:20:14;7.85;;;4.57;;
62256;SDS011;48240;52.962;5.790;2022-08-19T13:22:40;6.65;;;4.28;;
62256;SDS011;48240;52.962;5.790;2022-08-19T13:25:07;7.25;;;4.30;;
62256;SDS011;48240;52.962;5.790;2022-08-19T13:27:34;9.13;;;4.90;;
62256;SDS011;48240;52.962;5.790;2022-08-19T13:30:01;8.95;;;5.03;;
62256;SDS011;48240;52.962;5.790;2022-08-19T13:32:46;7.25;;;4.43;;
62256;SDS011;48240;52.962;5.790;2022-08-19T13:35:31;7.90;;;4.65;;
62256;SDS011;48240;52.962;5.790;2022-08-19T13:37:57;6.05;;;4.57;;
62256;SDS011;48240;52.962;5.790;2022-08-19T13:40:24;8.98;;;4.72;;
62256;SDS011;48240;52.962;5.790;2022-08-19T13:42:52;6.78;;;5.03;;
62256;SDS011;48240;52.962;5.790;2022-08-19T13:45:19;6.75;;;5.88;;
62256;SDS011;48240;52.962;5.790;2022-08-19T13:47:47;8.85;;;5.72;;
62256;SDS011;48240;52.962;5.790;2022-08-19T13:50:14;8.95;;;6.50;;
62256;SDS011;48240;52.962;5.790;2022-08-19T13:52:41;8.32;;;6.85;;
62256;SDS011;48240;52.962;5.790;2022-08-19T13:55:07;13.32;;;7.80;;
62256;SDS011;48240;52.962;5.790;2022-08-19T13:57:34;12.52;;;7.68;;
62256;SDS011;48240;52.962;5.790;2022-08-19T14:00:00;10.73;;;7.80;;
62256;SDS011;48240;52.962;5.790;2022-08-19T14:02:27;12.35;;;7.93;;
62256;SDS011;48240;52.962;5.790;2022-08-19T14:04:53;13.13;;;8.07;;
62256;SDS011;48240;52.962;5.790;2022-08-19T14:07:19;16.42;;;7.78;;
62256;SDS011;48240;52.962;5.790;2022-08-19T14:09:48;12.60;;;7.88;;
62256;SDS011;48240;52.962;5.790;2022-08-19T14:12:17;11.98;;;7.80;;
62256;SDS011;48240;52.962;5.790;2022-08-19T14:14:43;14.32;;;8.32;;
62256;SDS011;48240;52.962;5.790;2022-08-19T14:17:09;12.00;;;8.18;;
62256;SDS011;48240;52.962;5.790;2022-08-19T14:19:35;12.98;;;7.90;;
62256;SDS011;48240;52.962;5.790;2022-08-19T14:22:02;10.48;;;7.68;;
62256;SDS011;48240;52.962;5.790;2022-08-19T14:24:29;10.68;;;7.05;;
62256;SDS011;48240;52.962;5.790;2022-08-19T14:26:55;9.18;;;6.47;;
62256;SDS011;48240;52.962;5.790;2022-08-19T14:29:23;8.65;;;6.28;;
62256;SDS011;48240;52.962;5.790;2022-08-19T14:31:49;7.65;;;5.97;;
62256;SDS011;48240;52.962;5.790;2022-08-19T14:34:15;8.57;;;6.20;;
62256;SDS011;48240;52.962;5.790;2022-08-19T14:36:41;9.25;;;6.30;;
62256;SDS011;48240;52.962;5.790;2022-08-19T14:39:08;9.38;;;6.53;;
62256;SDS011;48240;52.962;5.790;2022-08-19T14:41:34;9.05;;;6.40;;
62256;SDS011;48240;52.962;5.790;2022-08-19T14:44:00;8.40;;;6.47;;
62256;SDS011;48240;52.962;5.790;2022-08-19T14:46:27;10.13;;;7.00;;
62256;SDS011;48240;52.962;5.790;2022-08-19T14:48:54;9.07;;;6.30;;
62256;SDS011;48240;52.962;5.790;2022-08-19T14:51:21;10.82;;;6.55;;
62256;SDS011;48240;52.962;5.790;2022-08-19T14:53:48;11.73;;;6.70;;
62256;SDS011;48240;52.962;5.790;2022-08-19T14:56:15;9.15;;;6.43;;
62256;SDS011;48240;52.962;5.790;2022-08-19T14:58:42;9.15;;;6.50;;
62256;SDS011;48240;52.962;5.790;2022-08-19T15:01:09;7.65;;;5.75;;
62256;SDS011;48240;52.962;5.790;2022-08-19T15:03:35;7.30;;;5.55;;
62256;SDS011;48240;52.962;5.790;2022-08-19T15:06:02;8.82;;;5.70;;
62256;SDS011;48240;52.962;5.790;2022-08-19T15:08:29;6.20;;;5.10;;
62256;SDS011;48240;52.962;5.790;2022-08-19T15:10:56;7.18;;;5.20;;
62256;SDS011;48240;52.962;5.790;2022-08-19T15:13:23;8.00;;;5.15;;
62256;SDS011;48240;52.962;5.790;2022-08-19T15:15:49;7.72;;;4.60;;
62256;SDS011;48240;52.962;5.790;2022-08-19T15:18:16;7.28;;;4.60;;
62256;SDS011;48240;52.962;5.790;2022-08-19T15:20:43;10.02;;;4.90;;
62256;SDS011;48240;52.962;5.790;2022-08-19T15:23:10;10.40;;;5.28;;
62256;SDS011;48240;52.962;5.790;2022-08-19T15:25:36;12.60;;;5.50;;
62256;SDS011;48240;52.962;5.790;2022-08-19T15:28:02;11.43;;;5.13;;
62256;SDS011;48240;52.962;5.790;2022-08-19T15:30:28;10.35;;;5.13;;
62256;SDS011;48240;52.962;5.790;2022-08-19T15:32:55;8.52;;;4.72;;
62256;SDS011;48240;52.962;5.790;2022-08-19T15:35:22;7.63;;;4.43;;
62256;SDS011;48240;52.962;5.790;2022-08-19T15:37:49;6.95;;;4.25;;
62256;SDS011;48240;52.962;5.790;2022-08-19T15:40:16;7.80;;;4.50;;
62256;SDS011;48240;52.962;5.790;2022-08-19T15:42:43;6.97;;;4.45;;
62256;SDS011;48240;52.962;5.790;2022-08-19T15:45:10;8.48;;;4.57;;
62256;SDS011;48240;52.962;5.790;2022-08-19T15:47:37;7.25;;;4.20;;
62256;SDS011;48240;52.962;5.790;2022-08-19T15:52:32;8.00;;;4.25;;
62256;SDS011;48240;52.962;5.790;2022-08-19T15:54:59;7.68;;;4.00;;
62256;SDS011;48240;52.962;5.790;2022-08-19T15:57:26;8.90;;;4.28;;
62256;SDS011;48240;52.962;5.790;2022-08-19T15:59:52;5.35;;;3.75;;
62256;SDS011;48240;52.962;5.790;2022-08-19T16:02:37;5.20;;;3.67;;
62256;SDS011;48240;52.962;5.790;2022-08-19T16:05:24;5.82;;;3.38;;
62256;SDS011;48240;52.962;5.790;2022-08-19T16:08:10;5.68;;;3.40;;
62256;SDS011;48240;52.962;5.790;2022-08-19T16:10:37;5.03;;;3.75;;
62256;SDS011;48240;52.962;5.790;2022-08-19T16:13:04;4.32;;;3.63;;
62256;SDS011;48240;52.962;5.790;2022-08-19T16:15:30;4.80;;;3.65;;
62256;SDS011;48240;52.962;5.790;2022-08-19T16:17:58;5.13;;;3.28;;
62256;SDS011;48240;52.962;5.790;2022-08-19T16:20:27;5.10;;;3.33;;
62256;SDS011;48240;52.962;5.790;2022-08-19T16:22:53;3.80;;;2.95;;
62256;SDS011;48240;52.962;5.790;2022-08-19T16:25:22;4.15;;;3.30;;
62256;SDS011;48240;52.962;5.790;2022-08-19T16:27:51;3.10;;;2.72;;
62256;SDS011;48240;52.962;5.790;2022-08-19T16:30:18;4.07;;;3.17;;
62256;SDS011;48240;52.962;5.790;2022-08-19T16:32:44;5.20;;;3.00;;
62256;SDS011;48240;52.962;5.790;2022-08-19T16:35:11;5.68;;;3.05;;
62256;SDS011;48240;52.962;5.790;2022-08-19T16:37:37;4.88;;;2.80;;
62256;SDS011;48240;52.962;5.790;2022-08-19T16:40:03;4.05;;;2.88;;
62256;SDS011;48240;52.962;5.790;2022-08-19T16:42:31;6.47;;;2.88;;
62256;SDS011;48240;52.962;5.790;2022-08-19T16:44:57;9.90;;;2.80;;
62256;SDS011;48240;52.962;5.790;2022-08-19T16:47:24;8.73;;;3.08;;
62256;SDS011;48240;52.962;5.790;2022-08-19T16:49:50;3.10;;;2.72;;
62256;SDS011;48240;52.962;5.790;2022-08-19T16:52:17;8.75;;;2.72;;
62256;SDS011;48240;52.962;5.790;2022-08-19T16:54:43;5.97;;;2.88;;
62256;SDS011;48240;52.962;5.790;2022-08-19T16:57:09;5.00;;;2.70;;
62256;SDS011;48240;52.962;5.790;2022-08-19T16:59:35;5.40;;;2.78;;
62256;SDS011;48240;52.962;5.790;2022-08-19T17:02:01;5.65;;;2.70;;
62256;SDS011;48240;52.962;5.790;2022-08-19T17:04:27;5.65;;;2.70;;
62256;SDS011;48240;52.962;5.790;2022-08-19T17:06:54;6.05;;;2.35;;
62256;SDS011;48240;52.962;5.790;2022-08-19T17:09:20;5.43;;;2.42;;
62256;SDS011;48240;52.962;5.790;2022-08-19T17:11:46;4.82;;;2.47;;
62256;SDS011;48240;52.962;5.790;2022-08-19T17:14:12;5.28;;;2.25;;
62256;SDS011;48240;52.962;5.790;2022-08-19T17:16:38;3.35;;;2.35;;
62256;SDS011;48240;52.962;5.790;2022-08-19T17:19:05;2.88;;;2.00;;
62256;SDS011;48240;52.962;5.790;2022-08-19T17:21:33;2.75;;;1.70;;
62256;SDS011;48240;52.962;5.790;2022-08-19T17:24:00;3.17;;;2.13;;
62256;SDS011;48240;52.962;5.790;2022-08-19T17:26:26;3.60;;;2.13;;
62256;SDS011;48240;52.962;5.790;2022-08-19T17:28:54;2.47;;;1.80;;
62256;SDS011;48240;52.962;5.790;2022-08-19T17:31:21;3.05;;;1.88;;
62256;SDS011;48240;52.962;5.790;2022-08-19T17:33:48;2.28;;;1.90;;
62256;SDS011;48240;52.962;5.790;2022-08-19T17:36:15;3.65;;;2.20;;
62256;SDS011;48240;52.962;5.790;2022-08-19T17:38:41;6.65;;;2.75;;
62256;SDS011;48240;52.962;5.790;2022-08-19T17:41:08;4.53;;;3.10;;
62256;SDS011;48240;52.962;5.790;2022-08-19T17:43:34;5.00;;;3.00;;
62256;SDS011;48240;52.962;5.790;2022-08-19T17:46:01;5.57;;;3.35;;
62256;SDS011;48240;52.962;5.790;2022-08-19T17:48:31;4.20;;;3.20;;
62256;SDS011;48240;52.962;5.790;2022-08-19T17:51:16;5.32;;;2.75;;
62256;SDS011;48240;52.962;5.790;2022-08-19T17:53:44;4.70;;;3.40;;
62256;SDS011;48240;52.962;5.790;2022-08-19T17:56:10;6.18;;;3.30;;
62256;SDS011;48240;52.962;5.790;2022-08-19T17:58:38;6.55;;;3.60;;
62256;SDS011;48240;52.962;5.790;2022-08-19T18:01:06;4.97;;;3.80;;
62256;SDS011;48240;52.962;5.790;2022-08-19T18:03:32;4.80;;;4.15;;
62256;SDS011;48240;52.962;5.790;2022-08-19T18:05:58;7.30;;;3.85;;
62256;SDS011;48240;52.962;5.790;2022-08-19T18:08:24;9.80;;;4.53;;
62256;SDS011;48240;52.962;5.790;2022-08-19T18:10:50;7.15;;;4.45;;
62256;SDS011;48240;52.962;5.790;2022-08-19T18:13:16;5.95;;;4.20;;
62256;SDS011;48240;52.962;5.790;2022-08-19T18:15:42;5.90;;;3.90;;
62256;SDS011;48240;52.962;5.790;2022-08-19T18:18:20;5.22;;;3.80;;
62256;SDS011;48240;52.962;5.790;2022-08-19T18:20:47;6.68;;;4.57;;
62256;SDS011;48240;52.962;5.790;2022-08-19T18:23:13;7.25;;;4.95;;
62256;SDS011;48240;52.962;5.790;2022-08-19T18:25:39;5.57;;;4.40;;
62256;SDS011;48240;52.962;5.790;2022-08-19T18:28:05;7.20;;;4.53;;
62256;SDS011;48240;52.962;5.790;2022-08-19T18:30:31;6.55;;;4.70;;
62256;SDS011;48240;52.962;5.790;2022-08-19T18:33:05;10.32;;;4.28;;
62256;SDS011;48240;52.962;5.790;2022-08-19T18:35:38;6.90;;;4.82;;
62256;SDS011;48240;52.962;5.790;2022-08-19T18:38:04;6.65;;;3.28;;
62256;SDS011;48240;52.962;5.790;2022-08-19T18:40:50;5.25;;;3.10;;
62256;SDS011;48240;52.962;5.790;2022-08-19T18:43:35;6.22;;;3.28;;
62256;SDS011;48240;52.962;5.790;2022-08-19T18:46:19;4.53;;;3.20;;
62256;SDS011;48240;52.962;5.790;2022-08-19T18:49:04;6.20;;;2.92;;
62256;SDS011;48240;52.962;5.790;2022-08-19T18:51:31;4.15;;;2.80;;
62256;SDS011;48240;52.962;5.790;2022-08-19T18:53:57;7.03;;;2.72;;
62256;SDS011;48240;52.962;5.790;2022-08-19T18:56:24;4.90;;;2.63;;
62256;SDS011;48240;52.962;5.790;2022-08-19T18:58:55;5.13;;;2.90;;
62256;SDS011;48240;52.962;5.790;2022-08-19T19:01:29;4.00;;;2.53;;
62256;SDS011;48240;52.962;5.790;2022-08-19T19:03:57;3.28;;;2.80;;
62256;SDS011;48240;52.962;5.790;2022-08-19T19:06:25;7.00;;;2.83;;